Ytteroyane Fyr, Norway

9:28 PM CET on January 22, 2017 (GMT +0100)
Flora | | Change Station

Elev 0 ft 61.60 °N, 5.01 °E | Updated 2 minutes ago

Rain
Rain
41.0 °F
Feels Like 37 °F
N
6.2
Wind Variable Wind from SSW
Gusts 13.7 mph

Today
High -- | Low -- °F
--% Chance of Precip.
Yesterday
High -- | Low -- °F
Precip. -- in
Pressure 30.09 in
Visibility 6.2 miles
Clouds Few 700 ft
Scattered Clouds 1100 ft
Mostly Cloudy 1500 ft
Windchill 37 °F
Dew Point 40 °F
Humidity 95%
Rainfall 0.13 in
Snow Depth Not available.
9:27 AM 4:18 PM
Waning Crescent, 24% visible
METAR ENFL 222020Z 17020KT 9999 FEW007 SCT011 BKN015 05/04 Q1019
Pressure 30.09 in
Visibility 6.2 miles
Clouds Few 700 ft
Scattered Clouds 1100 ft
Mostly Cloudy 1500 ft
Windchill 37 °F
Dew Point 40 °F
Humidity 95%
Rainfall 0.13 in
Snow Depth Not available.
9:27 AM 4:18 PM
Waning Crescent, 24% visible
METAR ENFL 222020Z 17020KT 9999 FEW007 SCT011 BKN015 05/04 Q1019

Get Your Daily Forecast Email!

Thanks for signing up!

Be on the lookout for a verification email in your inbox.

You'll start receiving the daily forecast at 8 AM.

×

10-Day Weather Forecast

×

Almanac

Astronomy

Jan. 22, 2017 Rise Set
Actual Time
Civil Twilight
Nautical Twilight
Astronomical Twilight
Moon
Length of Visible Light
Length of Day
Tomorrow will be .
, % of the Moon is Illuminated

Today's Extremes

Country Highs Country Lows

Community

WunderPhotos

Upload Photos

1,962,540 photos uploaded!

WunderBlog® & News

Nearby

Air Quality

  Air Quality AQ Index Pollutant
Not available.

Snow Depth

Station Depth Elevation

Earthquake Activity

City Distance Mag. Time & Date
Minimum magnitude displayed is 2.5.

Coastal Water Temperatures

Place Temperature

Stations

Nearby Weather Stations

Station Location Temp. Windchill Dew Point Humidity Wind Precip. Elev Updated Type